Terminal Aerodrome Forecast
Issued by NWS

Home | Current Version | Previous Version | Text Only | Print | Product List | Glossary Off
Versions: 1 2 3 4 5 6 7 8 9 10 11 12 13 14 15 16 17 18 19 20

000
FTUS43 KMPX 200520
TAFRNH
TAF
KRNH 200520Z 2006/2106 13009KT P6SM VCTS SCT060CB BKN250
      TEMPO 2006/2008 3SM -TSRA BR BKN025CB OVC100
     FM200800 30006KT 4SM BR BKN015
     FM201300 36008KT P6SM SKC
     FM201800 32007KT P6SM SKC
     FM210200 VRB02KT P6SM SCT250=

USA.gov is the U.S. government's official web portal to all federal, state and local government web resources and services.